Time;durP1;ratioP1;P1;durP2;ratioP2;P2;SDS_P1;SDS_P2;PMS_P1;PMS_P2;Temp;Humidity;BMP_temperature;BMP_pressure;BME280_temperature;BME280_humidity;BME280_pressure;Samples;Min_cycle;Max_cycle;Signal;HPM_P1;HPM_P2
2023/11/24 00:00:04;;;;;;;;;;;19.80;56.10;;;;;;1526321;76;706;-61
2023/11/24 00:02:06;;;;;;;;;;;19.70;56.00;;;;;;1523829;76;1097;-61
2023/11/24 00:04:08;;;;;;;;;;;19.80;56.00;;;;;;1523763;76;700;-60
2023/11/24 00:06:11;;;;;;;;;;;19.80;56.00;;;;;;1532296;76;1936;-61
2023/11/24 00:08:13;;;;;;;;;;;19.80;56.00;;;;;;1535584;76;750;-61
2023/11/24 00:10:15;;;;;;;;;;;19.60;55.70;;;;;;1531213;76;710;-61
2023/11/24 00:12:17;;;;;;;;;;;19.70;55.90;;;;;;1528203;76;1101;-63
2023/11/24 00:14:19;;;;;;;;;;;19.70;56.00;;;;;;1524286;76;692;-60
2023/11/24 00:16:21;;;;;;;;;;;19.80;56.00;;;;;;1526778;76;767;-60
2023/11/24 00:18:23;;;;;;;;;;;19.70;56.00;;;;;;1534352;76;869;-62
2023/11/24 00:20:25;;;;;;;;;;;19.80;56.10;;;;;;1537213;76;694;-62
2023/11/24 00:22:27;;;;;;;;;;;19.70;56.10;;;;;;1534029;76;1086;-61
2023/11/24 00:24:29;;;;;;;;;;;19.70;56.20;;;;;;1525244;76;772;-62
2023/11/24 00:26:31;;;;;;;;;;;19.80;56.30;;;;;;1533296;76;1916;-62
2023/11/24 00:28:36;;;;;;;;;;;19.70;56.30;;;;;;1531065;76;775;-60
2023/11/24 00:30:37;;;;;;;;;;;19.70;56.40;;;;;;1540013;76;1669;-60
2023/11/24 00:32:39;;;;;;;;;;;19.70;56.20;;;;;;1523699;76;1094;-61
2023/11/24 00:34:42;;;;;;;;;;;19.70;56.50;;;;;;1537220;76;697;-61
2023/11/24 00:36:46;;;;;;;;;;;19.70;56.30;;;;;;1537091;76;719;-61
2023/11/24 00:38:51;;;;;;;;;;;19.70;56.40;;;;;;1533403;76;756;-61
2023/11/24 00:40:53;;;;;;;;;;;19.70;56.40;;;;;;1529450;76;1369;-61
2023/11/24 00:42:55;;;;;;;;;;;19.70;56.30;;;;;;1524586;76;1143;-62
2023/11/24 00:44:57;;;;;;;;;;;19.70;56.40;;;;;;1526572;76;658;-60
2023/11/24 00:46:59;;;;;;;;;;;19.70;56.40;;;;;;1527719;76;1932;-61
2023/11/24 00:49:01;;;;;;;;;;;19.70;56.40;;;;;;1529731;76;701;-60
2023/11/24 00:51:03;;;;;;;;;;;19.70;56.20;;;;;;1534136;76;729;-60
2023/11/24 00:53:05;;;;;;;;;;;19.70;56.10;;;;;;1530785;76;1142;-60
2023/11/24 00:55:07;;;;;;;;;;;19.70;56.30;;;;;;1528617;76;664;-61
2023/11/24 00:57:09;;;;;;;;;;;19.70;56.30;;;;;;1526059;76;761;-60
2023/11/24 00:59:11;;;;;;;;;;;19.70;56.40;;;;;;1521884;76;710;-60
2023/11/24 01:01:13;;;;;;;;;;;19.70;56.40;;;;;;1523964;76;729;-59
2023/11/24 01:03:15;;;;;;;;;;;19.70;56.30;;;;;;1529395;76;1157;-60
2023/11/24 01:05:18;;;;;;;;;;;19.70;56.40;;;;;;1535593;76;665;-60
2023/11/24 01:07:20;;;;;;;;;;;19.70;56.50;;;;;;1527527;76;1916;-62
2023/11/24 01:09:24;;;;;;;;;;;19.70;56.20;;;;;;1534951;76;795;-62
2023/11/24 01:11:25;;;;;;;;;;;19.70;56.20;;;;;;1538116;76;763;-60
2023/11/24 01:13:31;;;;;;;;;;;19.60;56.00;;;;;;1524020;76;1115;-61
2023/11/24 01:15:31;;;;;;;;;;;19.80;56.00;;;;;;1522498;76;1679;-61
2023/11/24 01:17:35;;;;;;;;;;;19.70;56.10;;;;;;1522451;76;795;-60
2023/11/24 01:19:37;;;;;;;;;;;19.70;56.60;;;;;;1529141;76;741;-61
2023/11/24 01:21:39;;;;;;;;;;;19.70;56.70;;;;;;1531164;76;742;-60
2023/11/24 01:23:41;;;;;;;;;;;19.70;56.50;;;;;;1534511;76;1090;-60
2023/11/24 01:25:43;;;;;;;;;;;19.70;56.80;;;;;;1525230;76;679;-62
2023/11/24 01:27:44;;;;;;;;;;;19.70;57.00;;;;;;1533920;76;1928;-60
2023/11/24 01:29:46;;;;;;;;;;;19.70;56.80;;;;;;1532893;76;742;-62
2023/11/24 01:31:48;;;;;;;;;;;19.70;56.80;;;;;;1526646;76;770;-62
2023/11/24 01:33:50;;;;;;;;;;;19.70;56.80;;;;;;1532198;76;1099;-60
2023/11/24 01:35:53;;;;;;;;;;;19.70;56.70;;;;;;1537605;76;742;-61
2023/11/24 01:37:56;;;;;;;;;;;19.70;56.60;;;;;;1527451;76;1375;-61
2023/11/24 01:39:58;;;;;;;;;;;19.70;56.40;;;;;;1532003;76;698;-62
2023/11/24 01:42:00;;;;;;;;;;;19.70;56.50;;;;;;1526176;76;1119;-61
2023/11/24 01:44:03;;;;;;;;;;;19.70;56.60;;;;;;1530768;76;655;-61
2023/11/24 01:46:05;;;;;;;;;;;19.70;56.10;;;;;;1526275;76;668;-61
2023/11/24 01:48:08;;;;;;;;;;;19.70;56.20;;;;;;1533474;76;1920;-62
2023/11/24 01:50:10;;;;;;;;;;;19.70;56.30;;;;;;1526053;76;695;-60
2023/11/24 01:52:12;;;;;;;;;;;19.70;56.30;;;;;;1532326;76;1146;-60
2023/11/24 01:54:14;;;;;;;;;;;19.70;56.70;;;;;;1525910;76;735;-60
2023/11/24 01:56:15;;;;;;;;;;;19.70;56.20;;;;;;1525634;76;766;-60
2023/11/24 01:58:17;;;;;;;;;;;19.70;56.70;;;;;;1537599;76;772;-61
2023/11/24 02:00:19;;;;;;;;;;;19.70;56.50;;;;;;1521134;76;639;-60
2023/11/24 02:02:21;;;;;;;;;;;19.70;56.40;;;;;;1525602;76;1127;-60
2023/11/24 02:04:23;;;;;;;;;;;19.70;56.50;;;;;;1523408;76;778;-59
2023/11/24 02:06:25;;;;;;;;;;;19.70;56.40;;;;;;1534544;76;723;-58
2023/11/24 02:08:27;;;;;;;;;;;19.70;56.50;;;;;;1524361;76;1949;-60
2023/11/24 02:10:29;;;;;;;;;;;19.70;56.30;;;;;;1527525;76;738;-57
2023/11/24 02:12:31;;;;;;;;;;;19.70;56.40;;;;;;1530330;76;1114;-58
2023/11/24 02:14:33;;;;;;;;;;;19.80;56.10;;;;;;1533502;76;757;-58
2023/11/24 02:16:34;;;;;;;;;;;19.70;56.30;;;;;;1538688;76;671;-59
2023/11/24 02:18:36;;;;;;;;;;;19.70;56.60;;;;;;1536705;76;774;-58
2023/11/24 02:20:38;;;;;;;;;;;19.70;56.20;;;;;;1532376;76;776;-60
2023/11/24 02:22:41;;;;;;;;;;;19.80;56.20;;;;;;1538432;75;1160;-58
2023/11/24 02:24:43;;;;;;;;;;;19.70;56.40;;;;;;1522105;76;721;-60
2023/11/24 02:26:45;;;;;;;;;;;19.70;56.50;;;;;;1535123;76;1939;-60
2023/11/24 02:28:47;;;;;;;;;;;19.80;56.80;;;;;;1528110;76;685;-59
2023/11/24 02:30:49;;;;;;;;;;;19.70;56.60;;;;;;1536537;76;815;-59
2023/11/24 02:32:51;;;;;;;;;;;19.70;56.60;;;;;;1532738;76;1335;-60
2023/11/24 02:34:53;;;;;;;;;;;19.70;56.80;;;;;;1529811;76;791;-60
2023/11/24 02:36:55;;;;;;;;;;;19.70;56.70;;;;;;1527446;76;821;-59
2023/11/24 02:38:57;;;;;;;;;;;19.70;56.30;;;;;;1525761;76;717;-57
2023/11/24 02:41:00;;;;;;;;;;;19.70;56.50;;;;;;1534951;76;776;-57
2023/11/24 02:43:02;;;;;;;;;;;19.80;56.40;;;;;;1529310;76;1147;-58
2023/11/24 02:45:04;;;;;;;;;;;19.70;56.40;;;;;;1524834;76;709;-59
2023/11/24 02:47:06;;;;;;;;;;;19.70;56.30;;;;;;1525608;76;1911;-58
2023/11/24 02:49:08;;;;;;;;;;;19.70;56.70;;;;;;1536309;76;770;-60
2023/11/24 02:51:10;;;;;;;;;;;19.70;56.30;;;;;;1524944;76;773;-60
2023/11/24 02:53:12;;;;;;;;;;;19.70;56.30;;;;;;1530327;76;1175;-59
2023/11/24 02:55:14;;;;;;;;;;;19.70;56.30;;;;;;1536592;76;741;-60
2023/11/24 02:57:16;;;;;;;;;;;19.80;56.50;;;;;;1531505;76;706;-60
2023/11/24 02:59:18;;;;;;;;;;;19.70;56.50;;;;;;1532913;76;867;-62
2023/11/24 03:01:20;;;;;;;;;;;19.70;56.40;;;;;;1526827;76;732;-60
2023/11/24 03:03:22;;;;;;;;;;;19.70;56.50;;;;;;1528226;76;1162;-59
2023/11/24 03:05:24;;;;;;;;;;;19.80;56.50;;;;;;1540374;76;718;-59
2023/11/24 03:07:26;;;;;;;;;;;19.70;56.40;;;;;;1537396;76;1944;-58
2023/11/24 03:09:28;;;;;;;;;;;19.90;56.50;;;;;;1535529;76;789;-58
2023/11/24 03:11:31;;;;;;;;;;;19.70;56.30;;;;;;1537449;76;684;-57
2023/11/24 03:13:33;;;;;;;;;;;19.70;56.40;;;;;;1527240;76;1122;-58
2023/11/24 03:15:35;;;;;;;;;;;19.70;56.00;;;;;;1522694;76;650;-60
2023/11/24 03:17:37;;;;;;;;;;;19.70;55.90;;;;;;1532171;76;741;-60
2023/11/24 03:19:39;;;;;;;;;;;19.80;55.70;;;;;;1522864;76;735;-60
2023/11/24 03:21:41;;;;;;;;;;;19.80;55.70;;;;;;1535844;76;688;-60
2023/11/24 03:23:45;;;;;;;;;;;19.70;55.50;;;;;;1523000;76;1123;-60
2023/11/24 03:25:46;;;;;;;;;;;19.80;55.50;;;;;;1536535;76;717;-58
2023/11/24 03:27:49;;;;;;;;;;;19.80;55.50;;;;;;1533145;76;1936;-61
2023/11/24 03:29:51;;;;;;;;;;;19.70;55.40;;;;;;1535281;76;1514;-61
2023/11/24 03:31:52;;;;;;;;;;;19.80;55.40;;;;;;1530299;76;624;-56
2023/11/24 03:33:54;;;;;;;;;;;19.80;55.30;;;;;;1529401;76;1138;-60
2023/11/24 03:35:56;;;;;;;;;;;19.70;55.30;;;;;;1531056;76;769;-59
2023/11/24 03:37:58;;;;;;;;;;;19.80;55.20;;;;;;1541117;76;716;-59
2023/11/24 03:40:00;;;;;;;;;;;19.80;55.20;;;;;;1532505;76;776;-57
2023/11/24 03:42:02;;;;;;;;;;;19.70;55.20;;;;;;1535260;76;1118;-60
2023/11/24 03:44:04;;;;;;;;;;;19.80;55.10;;;;;;1534473;76;919;-61
2023/11/24 03:46:06;;;;;;;;;;;19.80;55.10;;;;;;1529881;76;725;-58
2023/11/24 03:48:08;;;;;;;;;;;19.80;55.10;;;;;;1532822;76;1939;-60
2023/11/24 03:50:10;;;;;;;;;;;19.80;55.00;;;;;;1531188;76;698;-60
2023/11/24 03:52:12;;;;;;;;;;;19.80;55.00;;;;;;1531003;76;1181;-59
2023/11/24 03:54:14;;;;;;;;;;;19.80;55.00;;;;;;1530908;76;714;-60
2023/11/24 03:56:16;;;;;;;;;;;19.90;55.00;;;;;;1528067;76;719;-61
2023/11/24 03:58:18;;;;;;;;;;;19.80;54.90;;;;;;1532425;76;857;-57
2023/11/24 04:00:21;;;;;;;;;;;19.90;54.90;;;;;;1522925;76;769;-60
2023/11/24 04:02:23;;;;;;;;;;;19.80;54.80;;;;;;1520665;76;1137;-57
2023/11/24 04:04:25;;;;;;;;;;;19.80;54.70;;;;;;1533385;76;718;-60
2023/11/24 04:06:27;;;;;;;;;;;19.80;54.80;;;;;;1529667;76;699;-58
2023/11/24 04:08:29;;;;;;;;;;;19.90;54.80;;;;;;1543010;76;1934;-59
2023/11/24 04:10:31;;;;;;;;;;;19.90;54.80;;;;;;1529185;76;731;-60
2023/11/24 04:12:33;;;;;;;;;;;19.90;54.70;;;;;;1527435;76;1154;-58
2023/11/24 04:14:35;;;;;;;;;;;19.90;54.80;;;;;;1529195;76;730;-58
2023/11/24 04:16:37;;;;;;;;;;;19.90;54.70;;;;;;1524953;76;630;-60
2023/11/24 04:18:39;;;;;;;;;;;19.90;54.70;;;;;;1537380;76;735;-58
2023/11/24 04:20:41;;;;;;;;;;;19.90;54.70;;;;;;1539845;76;640;-58
2023/11/24 04:22:42;;;;;;;;;;;19.90;54.70;;;;;;1533843;76;1138;-56
2023/11/24 04:24:44;;;;;;;;;;;19.90;54.60;;;;;;1534726;76;627;-61
2023/11/24 04:26:46;;;;;;;;;;;19.90;54.60;;;;;;1532662;76;1516;-56
2023/11/24 04:28:48;;;;;;;;;;;19.90;54.60;;;;;;1531128;76;1924;-56
2023/11/24 04:30:50;;;;;;;;;;;19.90;54.60;;;;;;1530372;76;767;-60
2023/11/24 04:32:52;;;;;;;;;;;19.90;54.40;;;;;;1535284;76;1103;-60
2023/11/24 04:34:54;;;;;;;;;;;19.90;54.50;;;;;;1531437;76;709;-57
2023/11/24 04:36:56;;;;;;;;;;;19.90;54.40;;;;;;1528591;76;667;-59
2023/11/24 04:38:58;;;;;;;;;;;19.90;54.50;;;;;;1520475;76;795;-57
2023/11/24 04:41:01;;;;;;;;;;;19.90;54.50;;;;;;1527598;76;708;-60
2023/11/24 04:43:03;;;;;;;;;;;19.90;54.40;;;;;;1492403;77;1152;-58
2023/11/24 04:45:06;;;;;;;;;;;20.00;54.40;;;;;;1526533;76;723;-59
2023/11/24 04:47:10;;;;;;;;;;;19.90;54.60;;;;;;1534599;76;614;-59
2023/11/24 04:49:12;;;;;;;;;;;20.00;54.40;;;;;;1521681;76;1915;-60
2023/11/24 04:51:13;;;;;;;;;;;19.90;54.40;;;;;;1529628;76;723;-59
2023/11/24 04:53:15;;;;;;;;;;;19.90;54.40;;;;;;1530998;75;1141;-59
2023/11/24 04:55:17;;;;;;;;;;;20.00;54.40;;;;;;1524374;76;823;-59
2023/11/24 04:57:19;;;;;;;;;;;20.00;54.40;;;;;;1541383;76;734;-61
2023/11/24 04:59:21;;;;;;;;;;;20.00;54.40;;;;;;1530936;76;770;-60
2023/11/24 05:01:23;;;;;;;;;;;19.90;54.30;;;;;;1534301;76;834;-59
2023/11/24 05:03:25;;;;;;;;;;;20.00;54.40;;;;;;1530141;76;1110;-61
2023/11/24 05:05:27;;;;;;;;;;;20.00;54.80;;;;;;1525207;76;798;-61
2023/11/24 05:07:29;;;;;;;;;;;20.00;54.60;;;;;;1532132;76;778;-59
2023/11/24 05:09:31;;;;;;;;;;;20.00;54.40;;;;;;1533998;76;1936;-62
2023/11/24 05:11:33;;;;;;;;;;;20.00;54.70;;;;;;1529019;76;684;-60
2023/11/24 05:13:34;;;;;;;;;;;20.00;54.40;;;;;;1538604;76;1139;-61
2023/11/24 05:15:38;;;;;;;;;;;20.00;55.00;;;;;;1527279;76;794;-60
2023/11/24 05:17:40;;;;;;;;;;;20.00;55.30;;;;;;1533586;76;1660;-60
2023/11/24 05:19:42;;;;;;;;;;;20.00;55.50;;;;;;1528757;76;730;-61
2023/11/24 05:21:44;;;;;;;;;;;20.10;55.60;;;;;;1532139;76;1521;-61
2023/11/24 05:23:46;;;;;;;;;;;20.00;55.40;;;;;;1529494;76;1126;-62
2023/11/24 05:25:47;;;;;;;;;;;20.00;55.50;;;;;;1538719;76;688;-61
2023/11/24 05:27:49;;;;;;;;;;;20.00;55.70;;;;;;1532383;76;1935;-61
2023/11/24 05:29:51;;;;;;;;;;;20.10;55.90;;;;;;1532310;76;795;-59
2023/11/24 05:31:53;;;;;;;;;;;20.00;55.80;;;;;;1530995;76;679;-61
2023/11/24 05:33:56;;;;;;;;;;;20.00;55.90;;;;;;1529315;76;1181;-61
2023/11/24 05:35:58;;;;;;;;;;;20.00;55.90;;;;;;1531871;76;750;-59
2023/11/24 05:38:00;;;;;;;;;;;20.00;56.10;;;;;;1539852;76;769;-62
2023/11/24 05:40:06;;;;;;;;;;;20.10;56.50;;;;;;1531314;76;693;-59
2023/11/24 05:42:05;;;;;;;;;;;20.10;56.50;;;;;;1530936;76;1747;-62
2023/11/24 05:44:07;;;;;;;;;;;20.10;56.40;;;;;;1522722;76;801;-60
2023/11/24 05:46:09;;;;;;;;;;;20.10;56.40;;;;;;1530514;76;891;-61
2023/11/24 05:48:11;;;;;;;;;;;20.20;56.30;;;;;;1526302;76;1941;-62
2023/11/24 05:50:22;;;;;;;;;;;20.10;56.50;;;;;;1528821;76;754;-62
2023/11/24 05:52:16;;;;;;;;;;;20.20;56.50;;;;;;1533776;75;1523;-64
2023/11/24 05:54:18;;;;;;;;;;;20.10;56.30;;;;;;1522463;76;734;-61
2023/11/24 05:56:20;;;;;;;;;;;20.00;54.50;;;;;;1513799;76;762;-61
2023/11/24 05:58:22;;;;;;;;;;;20.20;54.40;;;;;;1522953;76;714;-62
2023/11/24 06:00:25;;;;;;;;;;;20.10;54.90;;;;;;1525543;76;751;-62
2023/11/24 06:02:27;;;;;;;;;;;20.10;55.30;;;;;;1521671;76;1159;-62
2023/11/24 06:04:29;;;;;;;;;;;20.10;55.60;;;;;;1524188;76;693;-61
2023/11/24 06:06:31;;;;;;;;;;;20.10;55.70;;;;;;1519256;76;672;-62
2023/11/24 06:08:32;;;;;;;;;;;20.10;55.90;;;;;;1531179;76;1937;-63
2023/11/24 06:10:34;;;;;;;;;;;20.10;56.00;;;;;;1534329;76;701;-62
2023/11/24 06:12:36;;;;;;;;;;;20.00;56.00;;;;;;1533950;76;1161;-61
2023/11/24 06:14:39;;;;;;;;;;;20.10;56.20;;;;;;1528072;76;720;-62
2023/11/24 06:16:41;;;;;;;;;;;20.10;56.20;;;;;;1522057;76;727;-64
2023/11/24 06:18:44;;;;;;;;;;;20.00;56.10;;;;;;1527803;76;1514;-63
2023/11/24 06:20:46;;;;;;;;;;;20.10;56.30;;;;;;1521897;76;891;-61
2023/11/24 06:22:47;;;;;;;;;;;20.10;56.30;;;;;;1525385;76;1127;-59
2023/11/24 06:24:49;;;;;;;;;;;20.00;56.30;;;;;;1526096;76;789;-60
2023/11/24 06:26:51;;;;;;;;;;;20.10;56.30;;;;;;1528304;76;800;-58
2023/11/24 06:28:53;;;;;;;;;;;20.00;56.30;;;;;;1531649;76;1941;-61
2023/11/24 06:30:55;;;;;;;;;;;20.10;56.40;;;;;;1528722;76;777;-59
2023/11/24 06:32:57;;;;;;;;;;;20.10;56.40;;;;;;1500529;77;1094;-59
2023/11/24 06:34:59;;;;;;;;;;;20.00;56.30;;;;;;1512899;77;794;-59
2023/11/24 06:37:01;;;;;;;;;;;20.00;56.30;;;;;;1500671;77;711;-59
2023/11/24 06:39:03;;;;;;;;;;;20.00;56.30;;;;;;1510774;77;774;-57
2023/11/24 06:41:06;;;;;;;;;;;20.00;56.30;;;;;;1514797;77;760;-59
2023/11/24 06:43:08;;;;;;;;;;;20.00;56.30;;;;;;1506183;77;1141;-58
2023/11/24 06:45:12;;;;;;;;;;;19.70;56.20;;;;;;1515117;77;909;-60
2023/11/24 06:47:14;;;;;;;;;;;20.00;56.30;;;;;;1516454;77;815;-60
2023/11/24 06:49:17;;;;;;;;;;;20.00;56.30;;;;;;1510059;77;1957;-60
2023/11/24 06:51:22;;;;;;;;;;;20.00;56.30;;;;;;1510053;77;786;-59
2023/11/24 06:53:24;;;;;;;;;;;20.00;56.30;;;;;;1507777;77;1178;-60
2023/11/24 06:55:26;;;;;;;;;;;20.00;56.30;;;;;;1511100;77;680;-60
2023/11/24 06:57:27;;;;;;;;;;;20.00;56.30;;;;;;1508038;77;741;-59
2023/11/24 06:59:29;;;;;;;;;;;20.10;56.40;;;;;;1510612;77;722;-60
2023/11/24 07:01:32;;;;;;;;;;;19.90;56.30;;;;;;1512003;77;799;-59
2023/11/24 07:03:33;;;;;;;;;;;20.00;56.30;;;;;;1504230;77;1170;-60
2023/11/24 07:05:35;;;;;;;;;;;20.00;56.30;;;;;;1508438;77;816;-60
2023/11/24 07:07:38;;;;;;;;;;;20.00;56.40;;;;;;1517426;77;788;-60
2023/11/24 07:09:40;;;;;;;;;;;19.90;56.30;;;;;;1516600;77;1927;-60
2023/11/24 07:11:42;;;;;;;;;;;20.00;56.30;;;;;;1516042;77;715;-60
2023/11/24 07:13:44;;;;;;;;;;;19.90;56.30;;;;;;1517544;76;1126;-60
2023/11/24 07:15:47;;;;;;;;;;;20.00;56.30;;;;;;1508613;77;1663;-59
2023/11/24 07:17:49;;;;;;;;;;;19.90;56.30;;;;;;1504374;77;619;-59
2023/11/24 07:19:52;;;;;;;;;;;19.90;56.30;;;;;;1509411;77;784;-59
2023/11/24 07:21:54;;;;;;;;;;;19.90;56.30;;;;;;1512383;77;648;-59
2023/11/24 07:23:56;;;;;;;;;;;19.90;56.30;;;;;;1507441;77;1184;-60
2023/11/24 07:25:58;;;;;;;;;;;19.90;56.30;;;;;;1513995;77;704;-59
2023/11/24 07:28:00;;;;;;;;;;;19.90;56.30;;;;;;1516609;77;746;-59
2023/11/24 07:30:02;;;;;;;;;;;19.90;56.30;;;;;;1489475;78;1938;-58
2023/11/24 07:32:04;;;;;;;;;;;19.90;56.30;;;;;;1513530;76;1153;-59
2023/11/24 07:34:06;;;;;;;;;;;19.90;56.20;;;;;;1513052;77;714;-60
2023/11/24 07:36:09;;;;;;;;;;;19.90;56.30;;;;;;1512655;77;787;-60
2023/11/24 07:38:10;;;;;;;;;;;19.90;56.20;;;;;;1517792;77;683;-59
2023/11/24 07:40:16;;;;;;;;;;;19.90;56.20;;;;;;1509763;77;732;-60
2023/11/24 07:42:18;;;;;;;;;;;19.80;56.10;;;;;;1507651;77;1152;-60
2023/11/24 07:44:19;;;;;;;;;;;19.90;56.10;;;;;;1514148;77;801;-59
2023/11/24 07:46:21;;;;;;;;;;;19.80;56.00;;;;;;1520689;77;856;-60
2023/11/24 07:48:23;;;;;;;;;;;19.90;56.00;;;;;;1510370;77;732;-59
2023/11/24 07:50:25;;;;;;;;;;;19.90;56.00;;;;;;1508597;77;1930;-59
2023/11/24 07:52:27;;;;;;;;;;;19.90;55.90;;;;;;1512875;76;1159;-58
2023/11/24 07:54:29;;;;;;;;;;;19.80;55.80;;;;;;1507933;76;693;-61
2023/11/24 07:56:31;;;;;;;;;;;19.80;55.80;;;;;;1518081;76;693;-61
2023/11/24 07:58:33;;;;;;;;;;;19.80;55.70;;;;;;1517681;76;794;-62
2023/11/24 08:00:36;;;;;;;;;;;19.80;55.70;;;;;;1511144;76;831;-63
2023/11/24 08:02:40;;;;;;;;;;;19.80;55.70;;;;;;1514310;76;1146;-62
2023/11/24 08:04:42;;;;;;;;;;;19.80;55.70;;;;;;1512526;76;1027;-62
2023/11/24 08:06:45;;;;;;;;;;;19.80;55.70;;;;;;1499278;77;700;-62
2023/11/24 08:08:47;;;;;;;;;;;19.80;55.70;;;;;;1515899;76;1901;-63
2023/11/24 08:10:49;;;;;;;;;;;19.80;55.70;;;;;;1517764;76;1386;-62
2023/11/24 08:12:50;;;;;;;;;;;19.80;55.70;;;;;;1513590;76;1154;-62
2023/11/24 08:14:52;;;;;;;;;;;19.80;55.70;;;;;;1520776;76;755;-64
2023/11/24 08:16:54;;;;;;;;;;;19.80;55.60;;;;;;1511944;76;779;-62
2023/11/24 08:18:56;;;;;;;;;;;19.80;55.60;;;;;;1507579;76;771;-64
2023/11/24 08:21:01;;;;;;;;;;;19.70;55.60;;;;;;1518798;76;688;-64
2023/11/24 08:23:02;;;;;;;;;;;20.00;55.70;;;;;;1509223;76;1653;-61
2023/11/24 08:25:06;;;;;;;;;;;19.70;55.60;;;;;;1514130;76;721;-63
2023/11/24 08:27:07;;;;;;;;;;;19.80;55.50;;;;;;1497567;77;1033;-62
2023/11/24 08:29:09;;;;;;;;;;;19.80;55.50;;;;;;1513878;76;1949;-61
2023/11/24 08:31:17;;;;;;;;;;;19.80;55.50;;;;;;1514427;76;680;-62
2023/11/24 08:33:20;;;;;;;;;;;19.70;55.50;;;;;;1514535;76;1127;-64
2023/11/24 08:35:22;;;;;;;;;;;19.80;55.50;;;;;;1503399;76;828;-61
2023/11/24 08:37:26;;;;;;;;;;;19.80;55.50;;;;;;1504155;76;743;-63
2023/11/24 08:39:28;;;;;;;;;;;19.80;55.50;;;;;;1513774;76;884;-62
2023/11/24 08:41:30;;;;;;;;;;;19.80;55.50;;;;;;1504321;76;772;-62
2023/11/24 08:43:32;;;;;;;;;;;19.90;55.50;;;;;;1515632;76;1124;-60
2023/11/24 08:45:34;;;;;;;;;;;19.70;55.40;;;;;;1511022;76;784;-62
2023/11/24 08:47:36;;;;;;;;;;;19.80;55.40;;;;;;1507847;76;711;-62
2023/11/24 08:49:38;;;;;;;;;;;19.80;55.40;;;;;;1509472;76;1940;-61
2023/11/24 08:51:40;;;;;;;;;;;19.70;55.30;;;;;;1511019;76;744;-61
2023/11/24 08:53:43;;;;;;;;;;;19.80;55.30;;;;;;1508560;76;1141;-62
2023/11/24 08:55:47;;;;;;;;;;;19.70;55.20;;;;;;1506737;76;758;-61
2023/11/24 08:57:49;;;;;;;;;;;19.70;55.20;;;;;;1522514;76;837;-63
2023/11/24 08:59:51;;;;;;;;;;;19.80;55.20;;;;;;1512881;76;766;-62
2023/11/24 09:01:54;;;;;;;;;;;19.80;55.20;;;;;;1507060;76;784;-62
2023/11/24 09:03:56;;;;;;;;;;;19.70;55.20;;;;;;1514875;76;1160;-62
2023/11/24 09:05:58;;;;;;;;;;;19.70;55.20;;;;;;1511471;76;689;-62
2023/11/24 09:08:00;;;;;;;;;;;19.80;55.20;;;;;;1517547;76;1577;-62
2023/11/24 09:10:02;;;;;;;;;;;19.70;55.20;;;;;;1517318;76;1891;-63
2023/11/24 09:12:05;;;;;;;;;;;19.70;55.10;;;;;;1508528;76;1147;-62
2023/11/24 09:14:08;;;;;;;;;;;19.80;55.10;;;;;;1517404;76;922;-62
2023/11/24 09:16:10;;;;;;;;;;;19.70;55.20;;;;;;1523578;76;821;-62
2023/11/24 09:18:11;;;;;;;;;;;19.70;55.10;;;;;;1507183;76;923;-62
2023/11/24 09:20:16;;;;;;;;;;;19.70;55.10;;;;;;1520500;76;776;-63
2023/11/24 09:22:18;;;;;;;;;;;19.80;55.10;;;;;;1516336;76;1745;-62
2023/11/24 09:24:20;;;;;;;;;;;19.70;55.10;;;;;;1511720;76;750;-61
2023/11/24 09:26:22;;;;;;;;;;;19.60;54.90;;;;;;1516652;76;780;-62
2023/11/24 09:28:24;;;;;;;;;;;19.70;55.10;;;;;;1517000;76;714;-62
2023/11/24 09:30:26;;;;;;;;;;;19.80;55.10;;;;;;1514470;76;1944;-61
2023/11/24 09:32:31;;;;;;;;;;;19.70;55.00;;;;;;1506427;76;1148;-62
2023/11/24 09:34:31;;;;;;;;;;;19.70;55.10;;;;;;1511771;76;1523;-63
2023/11/24 09:36:33;;;;;;;;;;;19.70;55.00;;;;;;1507400;76;673;-62
2023/11/24 09:38:35;;;;;;;;;;;19.70;55.00;;;;;;1506677;76;776;-63
2023/11/24 09:40:37;;;;;;;;;;;19.70;55.10;;;;;;1516392;76;598;-62
2023/11/24 09:42:44;;;;;;;;;;;19.70;55.10;;;;;;1509888;76;1138;-63
2023/11/24 09:44:46;;;;;;;;;;;19.70;55.10;;;;;;1513180;76;2065;-61
2023/11/24 09:46:48;;;;;;;;;;;19.70;55.10;;;;;;1512986;76;704;-62
2023/11/24 09:48:49;;;;;;;;;;;19.60;55.00;;;;;;1521222;76;751;-63
2023/11/24 09:50:51;;;;;;;;;;;19.70;55.10;;;;;;1515008;76;1924;-62
2023/11/24 09:52:58;;;;;;;;;;;19.70;55.10;;;;;;1509221;76;1082;-61
2023/11/24 09:55:00;;;;;;;;;;;19.60;55.00;;;;;;1513230;76;695;-62
2023/11/24 09:57:02;;;;;;;;;;;19.70;55.20;;;;;;1512958;76;688;-63
2023/11/24 09:59:09;;;;;;;;;;;19.60;55.00;;;;;;1518387;76;761;-62
2023/11/24 10:01:22;;;;;;;;;;;19.70;55.10;;;;;;1515269;76;1197;-63
2023/11/24 10:03:21;;;;;;;;;;;19.70;55.20;;;;;;1512990;76;1508;-62
2023/11/24 10:05:26;;;;;;;;;;;19.60;55.00;;;;;;1515764;76;676;-62
2023/11/24 10:07:26;;;;;;;;;;;19.60;55.00;;;;;;1513412;76;1451;-62
2023/11/24 10:09:30;;;;;;;;;;;19.70;55.20;;;;;;1515162;76;1933;-63
2023/11/24 10:11:33;;;;;;;;;;;19.70;55.20;;;;;;1513601;76;759;-62
2023/11/24 10:13:35;;;;;;;;;;;19.60;55.10;;;;;;1520356;76;1166;-61
2023/11/24 10:15:37;;;;;;;;;;;19.60;55.10;;;;;;1513991;76;741;-61
2023/11/24 10:17:39;;;;;;;;;;;19.60;55.00;;;;;;1504939;76;825;-61
2023/11/24 10:19:41;;;;;;;;;;;19.60;55.00;;;;;;1513071;76;767;-60
2023/11/24 10:21:45;;;;;;;;;;;19.60;55.10;;;;;;1519369;76;687;-62
2023/11/24 10:23:48;;;;;;;;;;;19.60;55.10;;;;;;1522287;76;1102;-61
2023/11/24 10:25:50;;;;;;;;;;;19.70;55.20;;;;;;1518753;76;778;-63
2023/11/24 10:28:16;;;;;;;;;;;19.60;55.10;;;;;;1514986;76;721;-62
2023/11/24 10:29:59;;;;;;;;;;;19.60;55.10;;;;;;1512448;76;1926;-63
2023/11/24 10:32:02;;;;;;;;;;;19.60;55.00;;;;;;1508904;76;1113;-62
2023/11/24 10:34:05;;;;;;;;;;;19.60;55.10;;;;;;1502168;76;735;-64
2023/11/24 10:36:08;;;;;;;;;;;19.60;55.00;;;;;;1513065;76;705;-62
2023/11/24 10:38:10;;;;;;;;;;;19.60;55.00;;;;;;1516252;76;684;-62
2023/11/24 10:40:15;;;;;;;;;;;19.60;55.00;;;;;;1508057;76;727;-60
2023/11/24 10:42:19;;;;;;;;;;;19.60;55.10;;;;;;1504499;76;1650;-62
2023/11/24 10:44:19;;;;;;;;;;;19.60;55.10;;;;;;1513465;76;1697;-62
2023/11/24 10:46:21;;;;;;;;;;;19.50;55.00;;;;;;1501767;76;703;-61
2023/11/24 10:48:28;;;;;;;;;;;19.60;55.10;;;;;;1510153;76;776;-62
2023/11/24 10:50:32;;;;;;;;;;;19.50;55.10;;;;;;1501937;76;1909;-62
2023/11/24 10:52:34;;;;;;;;;;;19.60;55.00;;;;;;1515526;76;1570;-62
2023/11/24 10:54:38;;;;;;;;;;;19.60;55.00;;;;;;1509144;76;760;-62
2023/11/24 10:56:40;;;;;;;;;;;19.60;55.00;;;;;;1512324;76;719;-62
2023/11/24 10:58:43;;;;;;;;;;;19.60;55.00;;;;;;1518665;76;718;-62
2023/11/24 11:00:45;;;;;;;;;;;19.60;55.00;;;;;;1519187;76;1613;-62
2023/11/24 11:02:48;;;;;;;;;;;19.60;55.00;;;;;;1514263;76;1145;-64
2023/11/24 11:04:59;;;;;;;;;;;19.50;55.00;;;;;;1518904;76;660;-61
2023/11/24 11:07:15;;;;;;;;;;;19.60;55.10;;;;;;1514484;76;1853;-63
2023/11/24 11:11:44;;;;;;;;;;;19.60;55.00;;;;;;1491234;76;1919;-62
2023/11/24 11:13:43;;;;;;;;;;;19.50;55.00;;;;;;1518193;76;1702;-61
2023/11/24 11:15:50;;;;;;;;;;;19.50;55.00;;;;;;1509417;76;759;-64
2023/11/24 11:17:51;;;;;;;;;;;19.50;55.00;;;;;;1496511;77;1616;-61
2023/11/24 11:19:59;;;;;;;;;;;19.50;55.10;;;;;;1514472;76;992;-62
2023/11/24 11:22:01;;;;;;;;;;;19.50;55.00;;;;;;1516716;76;1104;-64
2023/11/24 11:24:08;;;;;;;;;;;19.50;55.10;;;;;;1512723;76;955;-62
2023/11/24 11:26:10;;;;;;;;;;;19.50;55.00;;;;;;1509073;76;2032;-61
2023/11/24 11:28:21;;;;;;;;;;;19.50;55.10;;;;;;1516102;76;704;-61
2023/11/24 11:30:26;;;;;;;;;;;19.50;55.00;;;;;;1517326;76;1990;-61
2023/11/24 11:32:27;;;;;;;;;;;19.50;55.10;;;;;;1510860;76;1630;-62
2023/11/24 11:34:32;;;;;;;;;;;19.50;55.00;;;;;;1512042;76;749;-61
2023/11/24 11:36:33;;;;;;;;;;;19.50;55.00;;;;;;1511857;76;760;-62
2023/11/24 11:38:40;;;;;;;;;;;19.50;55.00;;;;;;1517630;76;728;-62
2023/11/24 11:40:44;;;;;;;;;;;19.50;55.00;;;;;;1507847;76;1578;-61
2023/11/24 11:42:51;;;;;;;;;;;19.50;55.00;;;;;;1521327;76;1154;-61
2023/11/24 11:44:56;;;;;;;;;;;19.50;55.10;;;;;;1514212;76;697;-61
2023/11/24 11:47:10;;;;;;;;;;;19.50;55.00;;;;;;1510526;76;792;-62
2023/11/24 11:49:09;;;;;;;;;;;19.60;55.00;;;;;;1511102;76;993;-62
2023/11/24 11:51:13;;;;;;;;;;;19.50;55.00;;;;;;1516736;76;1930;-62
2023/11/24 11:53:16;;;;;;;;;;;19.50;55.00;;;;;;1515718;76;1089;-60
2023/11/24 11:55:21;;;;;;;;;;;19.60;55.00;;;;;;1504379;76;1590;-62
2023/11/24 11:57:23;;;;;;;;;;;19.50;55.00;;;;;;1511429;76;760;-63
2023/11/24 11:59:25;;;;;;;;;;;19.50;55.00;;;;;;1511120;76;723;-62
2023/11/24 12:01:27;;;;;;;;;;;19.50;55.00;;;;;;1513102;76;716;-63
2023/11/24 12:03:29;;;;;;;;;;;19.50;55.00;;;;;;1519730;76;1083;-63
2023/11/24 12:05:32;;;;;;;;;;;19.50;54.90;;;;;;1509175;76;765;-62
2023/11/24 12:07:35;;;;;;;;;;;19.50;54.90;;;;;;1516717;76;719;-61
2023/11/24 12:09:39;;;;;;;;;;;19.50;54.90;;;;;;1516295;76;775;-63
2023/11/24 12:11:40;;;;;;;;;;;19.50;54.90;;;;;;1514298;76;1906;-62